Time;durP1;ratioP1;P1;durP2;ratioP2;P2;SDS_P1;SDS_P2;PMS_P1;PMS_P2;Temp;Humidity;BMP_temperature;BMP_pressure;BME280_temperature;BME280_humidity;BME280_pressure;Samples;Min_cycle;Max_cycle;Signal;HPM_P1;HPM_P2
2024/03/10 00:12:57;;;;;;;40.60;18.80;;;;;;;3.44;66.30;100224.61;682048;1264;139233;-79
2024/03/10 00:28:03;;;;;;;40.50;19.50;;;;;;;3.38;67.15;100225.31;681885;1263;139933;-80
2024/03/10 00:43:06;;;;;;;41.40;20.80;;;;;;;3.29;67.22;100222.06;681934;1264;139341;-79
2024/03/10 00:58:10;;;;;;;43.10;20.90;;;;;;;3.15;68.02;100219.90;681990;1263;138811;-80
2024/03/10 01:13:15;;;;;;;47.80;21.40;;;;;;;3.09;68.30;100208.67;682002;1261;138698;-80
2024/03/10 01:28:19;;;;;;;47.20;19.80;;;;;;;2.99;68.49;100204.08;681966;1264;141148;-80
2024/03/10 01:43:22;;;;;;;46.30;20.60;;;;;;;2.88;68.90;100198.98;682047;1264;139702;-79
2024/03/10 01:58:30;;;;;;;44.10;20.70;;;;;;;2.79;70.09;100190.03;681749;1261;138682;-79
2024/03/10 02:13:34;;;;;;;46.60;20.30;;;;;;;2.82;71.23;100182.94;682081;1264;138624;-80
2024/03/10 02:28:56;;;;;;;40.60;21.30;;;;;;;2.93;71.77;100178.17;681854;1265;138575;-79
2024/03/10 02:59:22;;;;;;;52.20;23.60;;;;;;;2.77;71.74;100173.20;681861;1261;140129;-80
2024/03/10 03:14:26;;;;;;;45.80;22.80;;;;;;;2.65;72.20;100180.25;681819;1266;139774;-80
2024/03/10 03:29:30;;;;;;;46.40;20.50;;;;;;;2.45;72.39;100179.98;681863;1263;138961;-80
2024/03/10 03:44:33;;;;;;;56.80;23.40;;;;;;;2.19;73.39;100177.48;682077;1263;139429;-79
2024/03/10 03:59:40;;;;;;;57.20;23.80;;;;;;;2.05;73.99;100181.33;681878;1265;138927;-79
2024/03/10 04:14:43;;;;;;;;;;;;;;;1.88;74.79;100179.64;681856;1265;141030;-80
2024/03/10 04:29:47;;;;;;;196.30;77.40;;;;;;;1.83;75.54;100181.42;682050;1264;125181;-79
2024/03/10 04:44:50;;;;;;;67.50;28.60;;;;;;;1.91;75.62;100185.20;682278;1263;139021;-80
2024/03/10 04:59:54;;;;;;;57.60;25.30;;;;;;;1.90;75.71;100177.48;682258;1264;138992;-79
2024/03/10 05:14:57;;;;;;;51.80;21.60;;;;;;;1.92;76.35;100186.86;682178;1260;139985;-80
2024/03/10 05:30:06;;;;;;;52.10;22.90;;;;;;;1.99;76.35;100183.71;682231;1263;139190;-80
2024/03/10 05:45:09;;;;;;;49.00;21.40;;;;;;;2.11;76.18;100179.10;681977;1263;139026;-80
2024/03/10 06:00:14;;;;;;;48.30;20.40;;;;;;;2.48;75.80;100187.44;682421;1263;139509;-80
2024/03/10 06:15:22;;;;;;;45.80;20.50;;;;;;;2.92;75.29;100180.46;682067;1260;139532;-80
2024/03/10 06:30:29;;;;;;;84.00;35.00;;;;;;;3.08;74.67;100185.95;682306;1265;138516;-79
2024/03/10 06:45:33;;;;;;;62.50;24.30;;;;;;;3.29;73.83;100191.48;682204;1264;138797;-79
2024/03/10 07:00:41;;;;;;;67.40;27.20;;;;;;;3.76;73.26;100206.98;682244;1263;138808;-79
2024/03/10 07:15:46;;;;;;;151.00;55.90;;;;;;;4.03;72.39;100206.92;682048;1265;139752;-79
2024/03/10 07:30:50;;;;;;;114.10;38.60;;;;;;;4.29;71.57;100212.41;682319;1262;138739;-79
2024/03/10 07:45:53;;;;;;;57.40;25.10;;;;;;;4.47;70.54;100214.17;682320;1263;139570;-79
2024/03/10 08:00:57;;;;;;;50.50;22.30;;;;;;;4.80;69.99;100214.55;682292;1265;139556;-80
2024/03/10 08:16:01;;;;;;;260.40;87.90;;;;;;;5.21;69.65;100221.54;681968;1263;206733;-80
2024/03/10 08:31:05;;;;;;;332.70;113.10;;;;;;;5.61;68.55;100212.98;682033;1266;139125;-79
2024/03/10 08:46:11;;;;;;;189.90;68.40;;;;;;;6.01;67.96;100206.44;681972;1265;140154;-78
2024/03/10 09:01:16;;;;;;;49.00;24.10;;;;;;;6.59;67.28;100204.63;681788;1267;139956;-78
2024/03/10 09:16:21;;;;;;;37.90;19.20;;;;;;;7.32;65.98;100199.20;681733;1260;139261;-78
2024/03/10 09:31:24;;;;;;;32.90;16.60;;;;;;;8.17;64.50;100192.37;682052;1264;139560;-78
2024/03/10 09:46:30;;;;;;;43.50;20.30;;;;;;;8.93;62.44;100187.98;682160;1264;140232;-79
2024/03/10 10:01:35;;;;;;;45.30;20.40;;;;;;;9.55;61.48;100180.57;682215;1264;139193;-79
2024/03/10 10:16:38;;;;;;;159.60;70.40;;;;;;;10.23;60.52;100174.57;682148;1263;138367;-80
2024/03/10 10:31:58;;;;;;;29.80;15.60;;;;;;;11.44;57.94;100167.84;682055;1261;138686;-79
2024/03/10 10:47:03;;;;;;;27.40;14.20;;;;;;;12.64;56.23;100159.05;681982;1263;138134;-79
2024/03/10 11:02:07;;;;;;;27.10;13.80;;;;;;;13.94;53.75;100156.86;682155;1264;139630;-78
2024/03/10 11:17:13;;;;;;;20.80;11.40;;;;;;;14.19;52.82;100150.00;682016;1264;138646;-78
2024/03/10 11:32:34;;;;;;;20.20;12.90;;;;;;;13.85;52.67;100144.20;681959;1264;139131;-78
2024/03/10 11:47:38;;;;;;;29.50;14.80;;;;;;;13.31;52.43;100120.08;682084;1266;138248;-78
2024/03/10 12:02:43;;;;;;;25.90;14.40;;;;;;;13.25;52.44;100103.30;682106;1261;138897;-79
2024/03/10 12:17:53;;;;;;;50.30;30.70;;;;;;;13.16;52.54;100072.92;682083;1264;139412;-80
2024/03/10 12:32:57;;;;;;;46.80;23.90;;;;;;;13.31;52.86;100052.85;681676;1276;139027;-79
2024/03/10 12:48:01;;;;;;;39.90;20.70;;;;;;;13.47;53.40;100050.79;681894;1261;138854;-80
2024/03/10 13:03:05;;;;;;;20.50;12.30;;;;;;;13.52;53.46;100053.27;681766;1260;139677;-79
2024/03/10 13:18:15;;;;;;;21.90;13.30;;;;;;;13.40;53.02;100047.29;681841;1264;138748;-80
2024/03/10 13:33:28;;;;;;;33.40;18.90;;;;;;;12.72;53.57;100048.68;681741;1260;139909;-80
2024/03/10 13:48:36;;;;;;;21.50;12.20;;;;;;;12.93;53.74;100035.80;681839;1263;138508;-80
2024/03/10 14:04:02;;;;;;;94.40;40.30;;;;;;;12.52;53.95;100023.61;681866;1262;138981;-80
2024/03/10 14:19:05;;;;;;;39.20;20.80;;;;;;;12.21;54.59;100012.09;682168;1260;139775;-79
2024/03/10 14:34:11;;;;;;;23.40;13.50;;;;;;;12.30;54.18;99982.84;681968;1261;139092;-81
2024/03/10 14:49:27;;;;;;;39.00;19.80;;;;;;;12.21;54.28;99986.39;681824;1265;138290;-80
2024/03/10 15:04:30;;;;;;;28.20;14.70;;;;;;;11.79;54.80;100001.74;681777;1261;139740;-80
2024/03/10 15:19:34;;;;;;;23.00;12.30;;;;;;;11.61;55.30;100011.08;681794;1262;138322;-80
2024/03/10 15:34:38;;;;;;;24.40;14.30;;;;;;;11.33;55.67;100007.58;681943;1260;138926;-81
2024/03/10 15:49:42;;;;;;;40.60;31.80;;;;;;;10.92;56.40;100008.16;682034;1264;138634;-81
2024/03/10 16:04:50;;;;;;;126.70;39.50;;;;;;;10.51;57.09;100017.72;681977;1260;139298;-80
2024/03/10 16:19:54;;;;;;;92.20;34.10;;;;;;;10.00;57.76;100012.80;682204;1264;138368;-80
2024/03/10 16:34:58;;;;;;;103.30;49.00;;;;;;;9.64;58.43;100026.20;681981;1265;138424;-80
2024/03/10 16:50:02;;;;;;;373.40;110.90;;;;;;;9.25;59.36;100032.36;682163;1265;139809;-80
2024/03/10 17:05:06;;;;;;;230.40;90.80;;;;;;;9.00;59.61;100043.65;681930;1263;138350;-79
2024/03/10 17:20:11;;;;;;;90.70;29.50;;;;;;;8.88;59.93;100044.53;682054;1259;138192;-79
2024/03/10 17:35:15;;;;;;;75.40;24.10;;;;;;;8.67;60.24;100051.55;682180;1263;138058;-80
2024/03/10 17:50:19;;;;;;;66.60;24.20;;;;;;;8.40;60.62;100051.49;682164;1264;138092;-79
2024/03/10 18:05:26;;;;;;;117.50;35.90;;;;;;;8.25;61.06;100044.13;682010;1265;138341;-81
2024/03/10 18:20:31;;;;;;;118.00;35.60;;;;;;;8.14;61.34;100056.89;682095;1261;139170;-80
2024/03/10 18:35:36;;;;;;;34.50;20.00;;;;;;;8.03;61.66;100061.59;682048;1264;138368;-80
2024/03/10 18:50:40;;;;;;;24.10;11.50;;;;;;;7.88;61.85;100059.29;682029;1262;138977;-79
2024/03/10 19:05:57;;;;;;;62.40;23.50;;;;;;;7.66;62.32;100066.98;681915;1262;138007;-79
2024/03/10 19:21:02;;;;;;;63.40;24.00;;;;;;;7.42;62.92;100067.33;681592;1262;139561;-79
2024/03/10 19:36:14;;;;;;;21.90;11.70;;;;;;;7.32;63.51;100067.19;681680;1264;138796;-79
2024/03/10 19:51:28;;;;;;;41.40;18.60;;;;;;;7.25;63.88;100073.11;681437;1264;139071;-80
2024/03/10 20:06:35;;;;;;;89.70;34.40;;;;;;;7.33;64.06;100077.02;681877;1265;184122;-78
2024/03/10 20:21:39;;;;;;;30.50;13.10;;;;;;;7.40;64.31;100076.71;681921;1264;140480;-78
2024/03/10 20:36:44;;;;;;;26.80;10.60;;;;;;;7.60;64.07;100085.37;682141;1263;139317;-78
2024/03/10 20:51:49;;;;;;;27.00;12.70;;;;;;;7.70;63.78;100084.07;681929;1265;139521;-78
2024/03/10 21:06:58;;;;;;;30.90;14.90;;;;;;;7.58;63.95;100065.55;682045;1265;139475;-78
2024/03/10 21:22:06;;;;;;;36.30;16.20;;;;;;;7.43;64.31;100065.29;682010;1264;140921;-78
2024/03/10 21:37:13;;;;;;;22.70;11.30;;;;;;;7.45;64.27;100058.50;682073;1264;138946;-78
2024/03/10 21:52:16;;;;;;;22.70;10.40;;;;;;;7.34;64.02;100047.72;681690;1260;140679;-78
2024/03/10 22:07:20;;;;;;;37.90;16.30;;;;;;;7.29;63.61;100047.08;682177;1265;139527;-79
2024/03/10 22:22:23;;;;;;;37.30;14.60;;;;;;;7.21;63.55;100045.92;682150;1265;139297;-78
2024/03/10 22:37:26;;;;;;;19.50;8.60;;;;;;;7.01;63.60;100045.91;681889;1264;140708;-80
2024/03/10 22:52:33;;;;;;;21.50;8.70;;;;;;;6.81;63.69;100050.20;681892;1265;138808;-80
2024/03/10 23:07:36;;;;;;;35.80;12.10;;;;;;;6.64;63.64;100047.63;682250;1263;139561;-78
2024/03/10 23:22:40;;;;;;;19.00;8.60;;;;;;;6.54;63.70;100041.09;682125;1263;138893;-78
2024/03/10 23:37:44;;;;;;;18.00;8.10;;;;;;;6.40;63.98;100028.73;682111;1263;138362;-78
2024/03/10 23:52:51;;;;;;;14.80;7.00;;;;;;;6.33;63.70;100036.42;682129;1265;138621;-78
